Time;durP1;ratioP1;P1;durP2;ratioP2;P2;SDS_P1;SDS_P2;PMS_P1;PMS_P2;Temp;Humidity;BMP_temperature;BMP_pressure;BME280_temperature;BME280_humidity;BME280_pressure;Samples;Min_cycle;Max_cycle;Signal;HPM_P1;HPM_P2
2022/05/20 00:01:43;;;;;;;3.47;3.10;;;21.40;63.40;;;;;;4989523;28;95767;-63
2022/05/20 00:04:09;;;;;;;5.32;3.60;;;21.40;63.40;;;;;;4970857;28;92937;-63
2022/05/20 00:06:35;;;;;;;4.93;3.42;;;21.40;63.30;;;;;;4988532;28;95206;-63
2022/05/20 00:09:00;;;;;;;4.15;3.20;;;21.30;63.30;;;;;;4989068;28;93154;-63
2022/05/20 00:11:26;;;;;;;3.53;3.22;;;21.40;63.30;;;;;;4971577;28;93409;-63
2022/05/20 00:13:52;;;;;;;4.13;3.20;;;21.30;63.40;;;;;;4989549;28;93262;-63
2022/05/20 00:16:17;;;;;;;5.03;3.13;;;21.30;63.30;;;;;;4988850;28;92533;-63
2022/05/20 00:18:43;;;;;;;3.80;3.05;;;21.30;63.30;;;;;;4989087;28;92491;-63
2022/05/20 00:21:09;;;;;;;5.28;3.25;;;21.30;64.30;;;;;;4988841;28;93249;-63
2022/05/20 00:23:35;;;;;;;4.18;3.38;;;21.30;63.30;;;;;;4989656;28;92943;-63
2022/05/20 00:26:01;;;;;;;3.80;3.00;;;21.30;63.30;;;;;;4991260;28;92479;-63
2022/05/20 00:28:29;;;;;;;5.00;3.17;;;21.30;63.20;;;;;;4992462;28;92513;-63
2022/05/20 00:31:07;;;;;;;4.47;3.47;;;21.30;63.30;;;;;;4990381;28;95361;-63
2022/05/20 00:33:34;;;;;;;6.85;3.53;;;21.30;63.20;;;;;;4973938;28;95184;-63
2022/05/20 00:35:59;;;;;;;4.22;3.17;;;21.30;63.20;;;;;;4992394;28;93116;-63
2022/05/20 00:38:26;;;;;;;3.67;3.20;;;21.30;63.20;;;;;;4992325;28;92856;-63
2022/05/20 00:40:54;;;;;;;4.38;3.30;;;21.30;63.20;;;;;;4973415;28;93443;-63
2022/05/20 00:43:28;;;;;;;4.50;3.30;;;21.30;63.20;;;;;;4991722;28;92807;-63
2022/05/20 00:46:00;;;;;;;4.30;3.40;;;21.30;63.20;;;;;;4992632;28;92986;-63
2022/05/20 00:48:26;;;;;;;3.92;3.25;;;21.30;63.20;;;;;;4991920;28;91724;-61
2022/05/20 00:51:06;;;;;;;4.10;3.55;;;21.30;63.20;;;;;;4957696;28;95691;-61
2022/05/20 00:53:36;;;;;;;4.53;3.67;;;21.30;63.20;;;;;;4991719;28;92637;-61
2022/05/20 00:56:05;;;;;;;4.30;3.42;;;21.20;63.10;;;;;;4991094;28;95212;-63
2022/05/20 00:58:31;;;;;;;4.03;3.50;;;21.30;63.20;;;;;;4991634;28;92931;-63
2022/05/20 01:00:56;;;;;;;5.05;3.78;;;21.20;63.10;;;;;;4992122;28;93748;-63
2022/05/20 01:03:25;;;;;;;3.85;3.55;;;21.30;63.20;;;;;;4973535;28;92587;-63
2022/05/20 01:05:53;;;;;;;4.72;4.03;;;21.30;63.10;;;;;;4991171;28;92724;-63
2022/05/20 01:08:25;;;;;;;3.88;3.10;;;21.30;63.20;;;;;;4991151;28;93182;-63
2022/05/20 01:10:52;;;;;;;5.90;4.00;;;21.30;63.10;;;;;;4990686;28;95346;-63
2022/05/20 01:13:18;;;;;;;3.90;3.40;;;21.20;63.10;;;;;;4991637;28;93315;-63
2022/05/20 01:15:44;;;;;;;4.55;3.60;;;21.20;63.10;;;;;;4991275;28;92765;-63
2022/05/20 01:18:12;;;;;;;4.80;3.72;;;21.20;63.10;;;;;;4991224;28;92748;-63
2022/05/20 01:20:40;;;;;;;3.95;3.58;;;21.20;63.00;;;;;;4990324;28;95463;-63
2022/05/20 01:23:12;;;;;;;5.38;3.92;;;21.20;64.10;;;;;;4972832;28;97989;-63
2022/05/20 01:25:44;;;;;;;4.37;3.43;;;21.30;63.00;;;;;;4973108;28;92627;-63
2022/05/20 01:28:10;;;;;;;4.32;3.55;;;21.20;63.10;;;;;;4990869;28;92575;-63
2022/05/20 01:30:39;;;;;;;4.28;3.63;;;21.20;63.10;;;;;;4990926;28;93211;-63
2022/05/20 01:33:06;;;;;;;3.95;3.55;;;21.20;63.00;;;;;;4972447;28;92980;-63
2022/05/20 01:35:43;;;;;;;4.05;3.65;;;21.20;63.00;;;;;;4990972;28;92563;-62
2022/05/20 01:38:11;;;;;;;4.55;3.60;;;21.20;63.00;;;;;;4990481;28;92597;-63
2022/05/20 01:40:50;;;;;;;5.00;3.92;;;21.20;63.00;;;;;;4990806;28;93466;-63
2022/05/20 01:43:34;;;;;;;5.00;4.07;;;21.20;62.90;;;;;;4991090;28;93030;-62
2022/05/20 01:46:15;;;;;;;4.68;3.78;;;21.20;62.90;;;;;;4989704;28;95217;-63
2022/05/20 01:49:18;;;;;;;4.18;3.78;;;21.20;62.90;;;;;;4990832;28;92482;-62
2022/05/20 01:51:56;;;;;;;4.20;3.80;;;21.20;62.90;;;;;;4939000;28;95152;-63
2022/05/20 01:54:39;;;;;;;4.45;3.80;;;21.20;63.00;;;;;;4990689;28;93148;-63
2022/05/20 01:57:16;;;;;;;4.07;3.67;;;21.20;63.00;;;;;;4991510;28;92697;-63
2022/05/20 01:59:47;;;;;;;4.32;3.92;;;21.20;63.10;;;;;;4971817;28;92790;-63
2022/05/20 02:02:32;;;;;;;4.70;3.60;;;21.10;63.00;;;;;;4990711;28;93231;-63
2022/05/20 02:05:14;;;;;;;4.93;3.95;;;21.20;62.90;;;;;;4990657;28;92711;-63
2022/05/20 02:07:43;;;;;;;5.33;3.97;;;21.10;62.90;;;;;;4990934;28;92802;-62
2022/05/20 02:10:18;;;;;;;4.10;3.70;;;21.10;63.00;;;;;;4990449;28;92831;-62
2022/05/20 02:12:48;;;;;;;4.38;3.97;;;21.10;62.90;;;;;;4989797;28;95563;-62
2022/05/20 02:15:46;;;;;;;4.30;3.72;;;21.10;62.90;;;;;;4990145;28;97407;-62
2022/05/20 02:18:18;;;;;;;4.43;3.85;;;21.10;62.80;;;;;;4990603;28;92510;-62
2022/05/20 02:20:48;;;;;;;4.97;3.92;;;21.10;62.80;;;;;;4971541;28;92879;-63
2022/05/20 02:23:23;;;;;;;4.88;3.80;;;21.10;62.80;;;;;;4989688;28;92925;-63
2022/05/20 02:25:54;;;;;;;3.90;3.60;;;21.10;62.70;;;;;;4990179;28;92932;-62
2022/05/20 02:28:29;;;;;;;4.30;3.90;;;21.10;62.70;;;;;;4971727;28;92525;-63
2022/05/20 02:30:55;;;;;;;4.07;3.60;;;21.10;62.70;;;;;;4990549;28;91968;-63
2022/05/20 02:33:24;;;;;;;3.90;3.40;;;21.10;62.80;;;;;;4989040;28;92918;-63
2022/05/20 02:35:50;;;;;;;4.82;3.75;;;21.10;62.70;;;;;;4990454;28;92997;-63
2022/05/20 02:38:20;;;;;;;3.78;3.40;;;21.10;62.60;;;;;;4971085;28;95415;-63
2022/05/20 02:40:51;;;;;;;4.28;3.88;;;21.10;63.70;;;;;;4990448;28;92433;-63
2022/05/20 02:43:18;;;;;;;4.82;3.70;;;21.10;62.60;;;;;;4988977;28;93104;-62
2022/05/20 02:45:46;;;;;;;4.40;4.00;;;21.10;62.60;;;;;;4990247;28;92885;-63
2022/05/20 02:48:16;;;;;;;4.10;3.70;;;21.10;62.60;;;;;;4971739;28;92917;-63
2022/05/20 02:50:42;;;;;;;4.22;3.45;;;21.10;62.60;;;;;;4989491;28;92906;-63
2022/05/20 02:53:08;;;;;;;4.53;3.50;;;21.10;62.60;;;;;;4989433;28;93787;-63
2022/05/20 02:55:34;;;;;;;3.83;3.40;;;21.00;62.60;;;;;;4972084;28;93580;-63
2022/05/20 02:57:59;;;;;;;3.95;3.55;;;21.10;62.60;;;;;;4972212;28;92457;-62
2022/05/20 03:05:53;;;;;;;4.00;3.60;;;21.10;62.60;;;;;;4990229;28;94830;-62
2022/05/20 03:08:19;;;;;;;3.88;3.50;;;21.00;62.50;;;;;;4989417;28;92508;-63
2022/05/20 03:10:45;;;;;;;4.38;3.80;;;21.00;62.50;;;;;;4990242;28;92520;-63
2022/05/20 03:13:12;;;;;;;4.90;3.50;;;21.00;62.40;;;;;;4990247;28;93276;-63
2022/05/20 03:15:39;;;;;;;3.80;3.38;;;21.00;62.40;;;;;;4989766;28;92557;-63
2022/05/20 03:18:06;;;;;;;3.72;3.30;;;21.00;62.40;;;;;;4990212;28;92798;-63
2022/05/20 03:20:32;;;;;;;4.13;3.38;;;21.00;62.40;;;;;;4990276;28;91792;-63
2022/05/20 03:22:58;;;;;;;4.07;3.35;;;21.00;62.40;;;;;;4972003;28;95111;-63
2022/05/20 03:25:23;;;;;;;5.63;3.88;;;21.00;62.30;;;;;;4990306;28;92957;-63
2022/05/20 03:27:49;;;;;;;3.63;3.20;;;21.00;62.30;;;;;;4988969;28;94917;-62
2022/05/20 03:30:15;;;;;;;4.18;3.60;;;21.00;63.50;;;;;;4971505;28;92422;-63
2022/05/20 03:32:41;;;;;;;3.97;3.47;;;21.00;62.30;;;;;;4971579;28;95135;-63
2022/05/20 03:35:08;;;;;;;3.67;3.38;;;21.00;62.30;;;;;;4990027;28;92689;-63
2022/05/20 03:37:34;;;;;;;4.03;3.55;;;21.00;62.30;;;;;;4955253;28;92652;-62
2022/05/20 03:40:00;;;;;;;3.67;3.38;;;21.00;62.30;;;;;;4989598;28;92474;-63
2022/05/20 03:42:26;;;;;;;3.53;3.22;;;21.00;62.30;;;;;;4989564;28;92793;-63
2022/05/20 03:44:52;;;;;;;4.03;3.63;;;21.00;62.30;;;;;;4955556;28;92770;-62
2022/05/20 03:47:18;;;;;;;3.80;3.38;;;21.00;62.20;;;;;;4989258;28;93924;-62
2022/05/20 03:49:45;;;;;;;3.78;3.28;;;21.00;62.20;;;;;;4989509;28;92537;-62
2022/05/20 03:52:11;;;;;;;3.88;3.47;;;21.00;62.20;;;;;;4988230;28;95937;-62
2022/05/20 03:54:37;;;;;;;3.80;3.40;;;21.00;62.20;;;;;;4990073;28;95496;-63
2022/05/20 03:57:03;;;;;;;3.58;3.28;;;21.00;62.10;;;;;;4972092;28;92581;-63
2022/05/20 03:59:30;;;;;;;3.90;3.50;;;21.00;62.10;;;;;;4971382;28;93291;-62
2022/05/20 04:01:59;;;;;;;3.75;3.33;;;20.90;62.10;;;;;;4992645;28;93023;-63
2022/05/20 04:04:30;;;;;;;3.17;2.88;;;20.90;62.10;;;;;;4974787;28;95865;-63
2022/05/20 04:06:56;;;;;;;3.08;2.88;;;21.00;62.00;;;;;;4992914;28;92535;-63
2022/05/20 04:09:22;;;;;;;3.30;3.00;;;21.00;62.10;;;;;;4958867;28;92118;-63
2022/05/20 04:11:49;;;;;;;3.13;2.83;;;20.90;62.10;;;;;;4992289;28;93154;-62
2022/05/20 04:14:15;;;;;;;3.60;3.30;;;21.00;62.10;;;;;;4992577;28;92723;-62
2022/05/20 04:16:40;;;;;;;3.38;3.08;;;20.90;62.10;;;;;;4973332;28;94876;-63
2022/05/20 04:19:06;;;;;;;3.85;3.20;;;21.00;62.10;;;;;;4992937;28;92976;-63
2022/05/20 04:21:32;;;;;;;3.50;3.20;;;20.90;62.00;;;;;;4991938;28;93005;-63
2022/05/20 04:23:57;;;;;;;4.25;3.10;;;20.90;62.00;;;;;;4992572;28;92928;-64
2022/05/20 04:26:23;;;;;;;2.90;2.60;;;20.90;62.00;;;;;;4992533;28;92482;-63
2022/05/20 04:28:48;;;;;;;3.10;2.80;;;20.90;62.00;;;;;;4992581;28;93151;-63
2022/05/20 04:31:14;;;;;;;3.20;2.90;;;20.90;62.00;;;;;;4991764;28;93133;-63
2022/05/20 04:33:39;;;;;;;3.22;2.80;;;20.90;61.90;;;;;;4973986;28;95416;-63
2022/05/20 04:36:06;;;;;;;3.45;2.90;;;20.90;61.90;;;;;;4992428;28;92514;-62
2022/05/20 04:38:32;;;;;;;3.25;2.95;;;20.90;61.90;;;;;;4973271;28;92976;-63
2022/05/20 04:49:12;;;;;;;6.05;2.78;;;20.90;62.10;;;;;;4992369;28;92459;-63
2022/05/20 04:51:39;;;;;;;2.80;2.58;;;20.90;62.10;;;;;;4991982;28;92531;-63
2022/05/20 04:56:51;;;;;;;3.80;2.40;;;20.90;62.00;;;;;;4992194;28;92533;-63
2022/05/20 04:59:18;;;;;;;2.95;2.63;;;20.90;61.90;;;;;;4992414;28;92303;-63
2022/05/20 05:01:44;;;;;;;2.47;2.10;;;20.90;61.90;;;;;;4992190;28;93253;-63
2022/05/20 05:04:10;;;;;;;3.22;2.63;;;20.90;61.90;;;;;;4991753;28;92619;-63
2022/05/20 05:06:36;;;;;;;2.78;2.55;;;20.90;61.90;;;;;;4990953;28;95160;-63
2022/05/20 05:09:02;;;;;;;2.30;2.10;;;20.90;61.90;;;;;;4991508;28;92819;-63
2022/05/20 05:11:27;;;;;;;2.70;2.50;;;20.90;61.70;;;;;;4991172;28;92803;-63
2022/05/20 05:13:53;;;;;;;2.47;2.28;;;20.90;61.70;;;;;;4991142;28;92973;-63
2022/05/20 05:16:18;;;;;;;3.08;2.45;;;21.00;61.80;;;;;;4972930;28;93134;-63
2022/05/20 05:18:44;;;;;;;2.15;2.00;;;21.00;61.70;;;;;;4991290;28;92950;-63
2022/05/20 05:21:13;;;;;;;2.55;2.35;;;21.00;61.70;;;;;;4990616;28;94974;-63
2022/05/20 05:23:39;;;;;;;2.53;2.33;;;21.00;61.70;;;;;;4991759;28;92638;-63
2022/05/20 05:26:05;;;;;;;2.40;2.20;;;21.00;61.70;;;;;;4991783;28;92950;-62
2022/05/20 05:28:31;;;;;;;5.22;2.50;;;21.00;61.80;;;;;;4972673;28;92893;-63
2022/05/20 05:30:58;;;;;;;2.70;2.40;;;21.00;61.70;;;;;;4971446;28;96508;-64
2022/05/20 05:33:25;;;;;;;3.97;2.88;;;21.00;61.90;;;;;;4991684;28;94980;-64
2022/05/20 05:35:51;;;;;;;2.58;2.17;;;21.00;61.80;;;;;;4991426;28;92478;-64
2022/05/20 05:38:17;;;;;;;2.90;2.47;;;21.00;61.90;;;;;;4991331;28;92944;-63
2022/05/20 05:40:43;;;;;;;9.18;2.65;;;21.10;61.80;;;;;;4990947;28;93833;-63
2022/05/20 05:43:09;;;;;;;2.90;2.35;;;21.10;61.80;;;;;;4992869;28;93104;-62
2022/05/20 05:45:35;;;;;;;3.78;2.20;;;21.10;61.80;;;;;;4991922;28;93010;-63
2022/05/20 05:48:07;;;;;;;10.30;2.60;;;21.10;61.80;;;;;;4991909;28;92352;-62
2022/05/20 05:50:34;;;;;;;3.30;2.30;;;21.10;61.90;;;;;;4990457;28;94175;-63
2022/05/20 05:53:08;;;;;;;2.35;2.10;;;21.00;62.10;;;;;;4990617;28;92836;-63
2022/05/20 05:55:34;;;;;;;5.35;2.42;;;21.10;62.00;;;;;;4990120;28;95745;-63
2022/05/20 05:58:00;;;;;;;2.35;2.15;;;21.10;61.90;;;;;;4991071;28;92682;-62
2022/05/20 06:00:26;;;;;;;2.50;2.28;;;21.10;61.90;;;;;;4990377;28;93227;-62
2022/05/20 06:02:53;;;;;;;3.38;2.50;;;21.10;61.90;;;;;;4971920;28;93258;-62
2022/05/20 06:05:19;;;;;;;4.25;2.50;;;21.20;61.90;;;;;;4990830;28;92985;-63
2022/05/20 06:07:46;;;;;;;4.20;2.72;;;21.20;62.10;;;;;;4990691;28;92425;-63
2022/05/20 06:10:12;;;;;;;4.95;2.58;;;21.20;62.10;;;;;;4990253;28;93459;-63
2022/05/20 06:12:37;;;;;;;17.08;3.05;;;21.20;62.20;;;;;;4991558;28;93312;-63
2022/05/20 06:15:09;;;;;;;8.30;2.50;;;21.20;62.30;;;;;;4972251;28;92974;-62
2022/05/20 06:17:34;;;;;;;8.73;3.03;;;21.20;62.60;;;;;;4990723;28;92837;-63
2022/05/20 06:20:01;;;;;;;11.90;3.42;;;21.30;62.80;;;;;;4989408;28;95866;-63
2022/05/20 06:22:27;;;;;;;12.63;3.13;;;21.30;62.80;;;;;;4989401;28;95620;-63
2022/05/20 06:24:53;;;;;;;8.30;2.80;;;21.30;62.50;;;;;;4990173;28;93227;-63
2022/05/20 06:27:18;;;;;;;11.65;3.00;;;21.30;63.50;;;;;;4972520;28;93572;-63
2022/05/20 06:29:47;;;;;;;5.85;2.80;;;21.30;62.50;;;;;;4990562;28;95695;-63
2022/05/20 06:32:13;;;;;;;6.72;2.70;;;21.30;62.60;;;;;;4990813;28;93109;-63
2022/05/20 06:40:11;;;;;;;9.88;2.50;;;21.20;62.60;;;;;;4989743;28;93300;-62
2022/05/20 06:42:37;;;;;;;6.95;2.47;;;21.10;62.60;;;;;;4989787;28;92619;-63
2022/05/20 06:45:03;;;;;;;5.13;2.85;;;21.10;62.60;;;;;;4988847;28;94960;-63
2022/05/20 06:47:29;;;;;;;8.82;2.72;;;21.10;62.70;;;;;;4971459;28;92525;-62
2022/05/20 06:49:55;;;;;;;3.80;2.40;;;21.10;62.70;;;;;;4989754;28;93027;-63
2022/05/20 06:52:21;;;;;;;4.90;2.42;;;21.10;62.80;;;;;;4990534;28;92825;-63
2022/05/20 06:54:46;;;;;;;9.55;2.92;;;21.10;62.80;;;;;;4990629;28;92560;-62
2022/05/20 06:57:16;;;;;;;4.50;2.60;;;21.10;62.80;;;;;;4989354;28;92486;-63
2022/05/20 06:59:42;;;;;;;3.63;2.45;;;21.10;62.80;;;;;;4989534;28;94605;-63
2022/05/20 07:02:07;;;;;;;4.00;2.85;;;21.00;62.70;;;;;;4990531;28;92657;-63
2022/05/20 07:04:33;;;;;;;6.13;2.75;;;21.10;62.90;;;;;;4989308;28;92490;-63
2022/05/20 07:07:01;;;;;;;4.85;2.40;;;21.10;62.80;;;;;;4970779;28;93876;-63
2022/05/20 07:09:27;;;;;;;5.38;2.90;;;21.00;62.70;;;;;;4987284;28;95052;-62
2022/05/20 07:11:53;;;;;;;5.40;2.78;;;21.00;62.80;;;;;;4989687;28;95447;-63
2022/05/20 07:14:19;;;;;;;6.25;2.75;;;21.10;62.80;;;;;;4989888;28;92600;-63
2022/05/20 07:16:44;;;;;;;5.75;3.05;;;21.00;62.80;;;;;;4971068;28;92608;-63
2022/05/20 07:19:10;;;;;;;4.82;2.53;;;21.00;62.80;;;;;;4989418;28;93022;-62
2022/05/20 07:21:36;;;;;;;2.95;2.55;;;21.00;62.80;;;;;;4989006;28;92771;-62
2022/05/20 07:24:04;;;;;;;6.50;3.17;;;21.00;62.80;;;;;;4989030;28;95564;-63
2022/05/20 07:26:30;;;;;;;4.78;3.22;;;21.00;62.80;;;;;;4990225;28;91870;-63
2022/05/20 07:28:55;;;;;;;5.82;3.08;;;21.00;62.80;;;;;;4971918;28;93855;-63
2022/05/20 07:31:23;;;;;;;4.97;2.85;;;21.00;62.80;;;;;;4988683;28;92930;-63
2022/05/20 07:33:52;;;;;;;3.80;3.20;;;21.00;62.80;;;;;;4953823;28;100903;-63
2022/05/20 07:37:13;;;;;;;3.65;2.70;;;21.00;62.70;;;;;;4971827;28;88082;-62
2022/05/20 07:39:40;;;;;;;4.07;3.15;;;21.00;62.80;;;;;;4976114;28;88483;-62
2022/05/20 07:42:07;;;;;;;4.57;3.15;;;21.00;62.80;;;;;;4959865;28;88217;-62
2022/05/20 07:44:36;;;;;;;4.93;3.20;;;21.00;62.80;;;;;;4988836;28;87893;-62
2022/05/20 07:47:03;;;;;;;4.63;3.30;;;21.00;62.80;;;;;;4974754;28;89072;-63
2022/05/20 07:49:31;;;;;;;4.53;3.78;;;21.00;62.70;;;;;;4960692;28;89356;-63
2022/05/20 07:52:02;;;;;;;6.65;3.80;;;21.00;62.70;;;;;;4981885;28;88243;-63
2022/05/20 07:54:34;;;;;;;6.80;3.92;;;21.10;62.70;;;;;;4963980;28;88108;-63
2022/05/20 07:57:07;;;;;;;4.93;3.72;;;21.10;62.70;;;;;;4967130;28;89199;-63
2022/05/20 07:59:48;;;;;;;14.02;3.85;;;21.10;62.70;;;;;;4955455;28;88032;-63
2022/05/20 08:02:19;;;;;;;7.57;3.67;;;21.10;62.70;;;;;;4978729;28;88056;-63
2022/05/20 08:04:57;;;;;;;4.68;3.22;;;21.10;62.80;;;;;;4969679;28;89631;-63
2022/05/20 08:07:34;;;;;;;5.95;3.90;;;21.10;62.80;;;;;;4969626;28;89359;-63
2022/05/20 08:10:05;;;;;;;5.93;3.90;;;21.00;62.80;;;;;;4968866;28;88098;-63
2022/05/20 08:12:32;;;;;;;5.32;4.03;;;21.00;62.80;;;;;;4968243;28;88265;-63
2022/05/20 08:14:59;;;;;;;6.05;4.20;;;21.00;62.80;;;;;;4969058;28;88634;-63
2022/05/20 08:17:26;;;;;;;4.57;3.92;;;21.10;62.90;;;;;;4968667;28;87695;-63
2022/05/20 08:19:54;;;;;;;3.85;3.42;;;21.00;62.90;;;;;;4969213;28;88142;-63
2022/05/20 08:22:23;;;;;;;6.03;4.43;;;21.10;62.90;;;;;;4968529;28;87777;-63
2022/05/20 08:24:57;;;;;;;5.05;4.30;;;21.10;62.90;;;;;;4967679;28;89705;-61
2022/05/20 08:27:28;;;;;;;6.72;4.07;;;21.10;62.90;;;;;;4968092;28;88492;-62
2022/05/20 08:29:55;;;;;;;6.30;4.22;;;21.10;62.90;;;;;;4968597;28;88625;-63
2022/05/20 08:32:22;;;;;;;5.38;4.00;;;21.10;62.90;;;;;;4968557;28;88136;-63
2022/05/20 08:34:50;;;;;;;5.72;4.43;;;21.10;62.90;;;;;;4967015;28;88703;-62
2022/05/20 08:37:18;;;;;;;7.53;4.47;;;21.10;62.80;;;;;;4968665;28;87636;-63
2022/05/20 08:39:44;;;;;;;5.97;4.80;;;21.10;63.00;;;;;;4967040;28;87850;-63
2022/05/20 08:42:18;;;;;;;5.38;4.88;;;21.10;62.80;;;;;;4968376;28;88265;-63
2022/05/20 08:44:46;;;;;;;5.22;4.72;;;21.10;62.80;;;;;;4966629;28;89697;-62
2022/05/20 08:47:26;;;;;;;6.15;5.00;;;21.10;62.80;;;;;;4962765;28;88368;-63
2022/05/20 08:49:59;;;;;;;7.18;5.20;;;21.20;62.90;;;;;;4955025;28;87854;-63
2022/05/20 08:52:27;;;;;;;5.32;4.70;;;21.10;62.80;;;;;;4958299;28;87848;-62
2022/05/20 08:54:55;;;;;;;6.57;4.95;;;21.10;62.80;;;;;;4969286;28;88774;-63
2022/05/20 08:57:39;;;;;;;5.95;4.75;;;21.20;62.90;;;;;;4959228;28;89067;-63
2022/05/20 09:00:10;;;;;;;6.78;4.90;;;21.10;62.90;;;;;;4969059;28;87822;-63
2022/05/20 09:02:37;;;;;;;7.25;4.72;;;21.10;62.80;;;;;;4972865;28;87715;-62
2022/05/20 09:05:29;;;;;;;5.93;4.90;;;21.20;62.90;;;;;;4953330;28;88981;-63
2022/05/20 09:08:04;;;;;;;6.20;5.20;;;21.20;62.90;;;;;;4950865;28;88730;-63
2022/05/20 09:10:35;;;;;;;5.85;4.90;;;21.20;62.80;;;;;;4964547;28;87962;-64
2022/05/20 09:13:11;;;;;;;6.82;4.90;;;21.20;62.80;;;;;;4973892;28;87748;-62
2022/05/20 09:15:46;;;;;;;5.75;5.00;;;21.20;62.80;;;;;;4958968;28;88644;-63
2022/05/20 09:18:20;;;;;;;6.53;5.20;;;21.20;62.80;;;;;;4974453;28;87609;-63
2022/05/20 09:20:50;;;;;;;6.90;5.32;;;21.20;62.80;;;;;;4972788;28;87595;-63
2022/05/20 09:23:20;;;;;;;5.30;4.80;;;21.20;62.80;;;;;;4974176;28;88571;-63
2022/05/20 09:25:49;;;;;;;6.07;4.75;;;21.20;62.80;;;;;;4970461;28;88607;-63
2022/05/20 09:28:44;;;;;;;6.50;5.20;;;21.20;62.80;;;;;;4954745;28;88527;-63
2022/05/20 09:31:13;;;;;;;6.35;5.13;;;21.20;62.70;;;;;;4955890;28;88434;-64
2022/05/20 09:33:47;;;;;;;6.00;5.38;;;21.20;62.90;;;;;;4955954;28;87839;-62
2022/05/20 09:36:33;;;;;;;5.65;5.03;;;21.20;62.80;;;;;;4957227;28;88777;-63
2022/05/20 09:39:15;;;;;;;6.03;5.28;;;21.20;62.80;;;;;;4972784;28;88861;-63
2022/05/20 09:41:54;;;;;;;6.03;5.10;;;21.20;62.80;;;;;;4956104;28;88057;-63
2022/05/20 09:44:24;;;;;;;5.70;4.60;;;21.20;62.80;;;;;;4949366;28;88093;-64
2022/05/20 09:46:59;;;;;;;6.70;5.18;;;21.20;62.80;;;;;;4944547;28;89898;-62
2022/05/20 09:49:52;;;;;;;5.00;4.50;;;21.20;62.70;;;;;;4968601;28;88393;-63
2022/05/20 09:52:33;;;;;;;7.57;4.50;;;21.20;62.60;;;;;;4965247;28;87680;-62
2022/05/20 09:55:04;;;;;;;4.97;4.47;;;21.20;62.70;;;;;;4957479;28;87897;-63
2022/05/20 09:57:40;;;;;;;4.95;4.55;;;21.30;62.80;;;;;;4940086;28;89773;-62
2022/05/20 10:00:17;;;;;;;5.00;4.60;;;21.30;62.60;;;;;;4947445;28;89864;-63
2022/05/20 10:02:56;;;;;;;4.80;4.25;;;21.30;62.60;;;;;;4954305;28;88357;-63
2022/05/20 10:05:45;;;;;;;4.90;4.50;;;21.30;62.60;;;;;;4954499;28;88155;-63
2022/05/20 10:08:42;;;;;;;5.20;4.32;;;21.40;62.70;;;;;;4953719;28;87975;-63
2022/05/20 10:11:24;;;;;;;4.70;4.28;;;21.30;62.60;;;;;;4934105;28;89177;-63
2022/05/20 10:14:03;;;;;;;6.85;4.47;;;21.30;62.60;;;;;;4953888;28;87898;-63
2022/05/20 10:16:36;;;;;;;5.15;4.57;;;21.40;62.70;;;;;;4953024;28;88459;-63
2022/05/20 10:19:15;;;;;;;;;;;21.40;62.70;;;;;;4937305;28;88610;-63
2022/05/20 10:21:58;;;;;;;6.65;4.63;;;21.30;63.00;;;;;;4955012;28;89136;-63
2022/05/20 10:24:47;;;;;;;5.05;4.05;;;21.40;63.20;;;;;;4953458;28;87935;-63
2022/05/20 10:27:14;;;;;;;7.43;4.80;;;21.40;63.40;;;;;;4954018;28;88125;-63
2022/05/20 10:32:52;;;;;;;8.35;5.10;;;21.50;63.50;;;;;;4952519;28;88038;-62
2022/05/20 10:35:24;;;;;;;6.60;4.78;;;21.50;63.60;;;;;;4952946;28;88420;-63
2022/05/20 10:38:25;;;;;;;5.97;4.68;;;21.50;63.70;;;;;;4953495;28;87350;-63
2022/05/20 10:41:13;;;;;;;5.43;4.60;;;21.60;63.70;;;;;;4953098;28;87579;-61
2022/05/20 10:50:25;;;;;;;7.50;4.40;;;21.60;63.80;;;;;;4952018;28;87684;-64
2022/05/20 10:53:17;;;;;;;8.43;4.40;;;21.60;63.80;;;;;;4953278;28;89768;-61
2022/05/20 10:56:21;;;;;;;12.75;4.70;;;21.60;63.70;;;;;;4953286;28;88353;-62
2022/05/20 10:59:07;;;;;;;10.38;4.57;;;21.60;63.80;;;;;;4932102;28;87753;-62
2022/05/20 11:01:37;;;;;;;7.07;3.92;;;21.70;64.10;;;;;;4950683;28;88251;-63
2022/05/20 11:04:19;;;;;;;8.20;4.30;;;21.70;64.10;;;;;;4953143;28;87902;-62
2022/05/20 11:07:09;;;;;;;8.27;4.13;;;21.70;64.00;;;;;;4953232;28;87719;-61
2022/05/20 11:09:54;;;;;;;9.25;4.10;;;21.70;64.00;;;;;;4923391;28;87918;-61
2022/05/20 11:12:55;;;;;;;7.82;4.32;;;21.70;64.00;;;;;;4952353;28;87811;-62
2022/05/20 11:15:39;;;;;;;7.00;4.30;;;21.70;64.10;;;;;;4952980;28;89139;-61
2022/05/20 11:18:23;;;;;;;8.70;4.03;;;21.70;64.00;;;;;;4953305;28;88766;-62
2022/05/20 11:21:07;;;;;;;5.75;3.90;;;21.70;64.10;;;;;;4952605;28;88447;-61
2022/05/20 11:23:48;;;;;;;9.57;3.72;;;21.70;64.10;;;;;;4952755;28;88225;-61
2022/05/20 11:26:45;;;;;;;11.93;3.80;;;21.60;64.10;;;;;;4953315;28;88766;-62
2022/05/20 11:29:24;;;;;;;7.68;3.45;;;21.70;64.10;;;;;;4953327;28;89562;-62
2022/05/20 11:31:59;;;;;;;10.65;3.72;;;21.70;64.20;;;;;;4952789;28;87514;-61
2022/05/20 11:34:51;;;;;;;11.10;3.90;;;21.70;64.10;;;;;;4952476;28;88147;-61
2022/05/20 11:37:50;;;;;;;9.52;3.65;;;21.80;64.50;;;;;;4952130;28;88872;-62
2022/05/20 11:40:28;;;;;;;8.13;3.47;;;21.80;64.30;;;;;;4953212;28;89546;-61
2022/05/20 11:43:25;;;;;;;8.88;3.30;;;21.80;64.30;;;;;;4952301;28;87591;-62
2022/05/20 11:46:23;;;;;;;9.75;3.60;;;21.80;64.20;;;;;;4952395;28;87995;-62
2022/05/20 11:49:29;;;;;;;12.15;3.63;;;21.80;64.20;;;;;;4951280;28;91302;-61
2022/05/20 11:52:13;;;;;;;19.25;4.38;;;21.80;64.30;;;;;;4937431;28;88466;-61
2022/05/20 11:55:01;;;;;;;18.13;4.10;;;21.80;64.40;;;;;;4951142;28;88009;-61
2022/05/20 11:57:38;;;;;;;20.77;4.00;;;21.80;64.50;;;;;;4952495;28;88025;-61
2022/05/20 12:00:12;;;;;;;27.45;4.25;;;21.90;64.50;;;;;;4950923;28;88740;-61
2022/05/20 12:02:46;;;;;;;18.20;4.07;;;21.90;64.60;;;;;;4952095;28;88900;-61
2022/05/20 12:05:16;;;;;;;18.42;4.13;;;21.90;64.70;;;;;;4951779;28;90941;-61
2022/05/20 12:07:43;;;;;;;17.70;4.57;;;21.90;64.80;;;;;;4951132;28;88321;-61
2022/05/20 12:10:35;;;;;;;19.42;4.40;;;21.90;64.70;;;;;;4951945;28;88584;-62
2022/05/20 12:13:19;;;;;;;18.50;4.30;;;22.00;64.70;;;;;;4951599;28;90901;-61
2022/05/20 12:15:49;;;;;;;22.05;4.43;;;22.00;64.50;;;;;;4951288;28;89484;-61
2022/05/20 12:24:39;;;;;;;13.77;5.22;;;21.90;63.80;;;;;;4949048;28;90333;-61
2022/05/20 12:27:21;;;;;;;13.48;7.15;;;21.80;63.50;;;;;;4937787;28;90547;-64
2022/05/20 12:30:07;;;;;;;16.35;7.50;;;21.80;62.50;;;;;;4956103;28;88757;-64
2022/05/20 12:32:34;;;;;;;14.02;8.93;;;21.80;61.80;;;;;;4951270;28;88658;-64
2022/05/20 12:35:21;;;;;;;14.90;8.52;;;21.70;61.50;;;;;;4955689;28;90513;-64
2022/05/20 12:37:48;;;;;;;16.45;8.75;;;21.70;60.80;;;;;;4973285;28;88992;-64
2022/05/20 12:40:28;;;;;;;10.57;7.82;;;21.60;60.40;;;;;;4964927;28;89329;-64
2022/05/20 12:43:07;;;;;;;13.73;9.50;;;21.60;59.90;;;;;;4960152;28;89921;-64
2022/05/20 12:45:54;;;;;;;23.50;9.55;;;21.60;59.50;;;;;;4953800;28;90025;-64
2022/05/20 12:48:27;;;;;;;12.52;9.10;;;21.50;59.10;;;;;;4954198;28;89303;-64
2022/05/20 12:51:06;;;;;;;24.42;9.70;;;21.50;59.00;;;;;;4971557;28;89590;-64
2022/05/20 12:53:34;;;;;;;16.27;9.30;;;21.40;59.00;;;;;;4973420;28;89659;-64
2022/05/20 12:56:01;;;;;;;15.43;8.80;;;21.40;58.90;;;;;;4969536;28;89410;-64
2022/05/20 12:58:31;;;;;;;30.15;9.07;;;21.30;59.00;;;;;;4953825;28;89575;-63
2022/05/20 13:01:01;;;;;;;16.88;8.38;;;21.40;59.10;;;;;;4969063;28;89973;-63
2022/05/20 13:03:30;;;;;;;16.27;8.07;;;21.30;59.20;;;;;;4953840;28;88788;-64
2022/05/20 13:06:00;;;;;;;13.00;7.70;;;21.40;59.40;;;;;;4953103;28;89968;-63
2022/05/20 13:08:30;;;;;;;18.13;7.28;;;21.40;59.80;;;;;;4965975;28;90789;-64
2022/05/20 13:11:07;;;;;;;13.93;7.55;;;21.40;60.00;;;;;;4969763;28;88161;-64
2022/05/20 13:13:34;;;;;;;18.25;7.38;;;21.40;60.20;;;;;;4966778;28;88770;-64
2022/05/20 13:16:04;;;;;;;12.07;7.47;;;21.40;60.40;;;;;;4968943;28;89404;-65
2022/05/20 13:18:34;;;;;;;15.35;7.10;;;21.40;60.50;;;;;;4971726;28;89970;-64
2022/05/20 13:21:07;;;;;;;13.88;6.78;;;21.40;60.70;;;;;;4972857;28;88381;-64
2022/05/20 13:23:37;;;;;;;24.52;7.35;;;21.40;60.80;;;;;;4973514;28;90832;-64
2022/05/20 13:26:16;;;;;;;16.83;6.93;;;21.40;61.00;;;;;;4973065;28;90406;-64
2022/05/20 13:28:43;;;;;;;14.60;6.07;;;21.40;61.10;;;;;;4963119;28;89627;-64
2022/05/20 13:31:18;;;;;;;14.23;6.65;;;21.30;61.10;;;;;;4950735;28;88897;-64
2022/05/20 13:33:45;;;;;;;9.23;5.93;;;21.30;61.20;;;;;;4952745;28;88224;-65
2022/05/20 13:36:17;;;;;;;13.05;5.82;;;21.30;61.20;;;;;;4952779;28;89071;-64
2022/05/20 13:38:49;;;;;;;11.52;6.00;;;21.30;61.30;;;;;;4953186;28;89548;-64
2022/05/20 13:41:20;;;;;;;11.73;5.50;;;21.30;61.40;;;;;;4955242;28;88638;-63
2022/05/20 13:43:51;;;;;;;12.00;5.47;;;21.30;61.40;;;;;;4971187;28;89359;-64
2022/05/20 13:49:15;;;;;;;10.25;5.78;;;21.30;61.90;;;;;;4969566;28;89798;-65
2022/05/20 13:51:58;;;;;;;16.80;6.03;;;21.30;62.10;;;;;;4951343;28;88602;-64